Time;durP1;ratioP1;P1;durP2;ratioP2;P2;SDS_P1;SDS_P2;PMS_P1;PMS_P2;Temp;Humidity;BMP_temperature;BMP_pressure;BME280_temperature;BME280_humidity;BME280_pressure;Samples;Min_cycle;Max_cycle;Signal;HPM_P1;HPM_P2
2024/03/30 00:01:43;;;;;;;3.80;2.13;;;;;;;;;;10418214;28;20026;-61
2024/03/30 00:06:43;;;;;;;6.05;2.35;;;;;;;;;;10411843;28;20313;-61
2024/03/30 00:11:44;;;;;;;4.32;2.17;;;;;;;;;;10425803;28;20103;-60
2024/03/30 00:16:45;;;;;;;4.60;2.33;;;;;;;;;;10414955;28;20047;-61
2024/03/30 00:21:45;;;;;;;6.60;2.10;;;;;;;;;;10416983;28;20040;-61
2024/03/30 00:26:46;;;;;;;5.30;2.33;;;;;;;;;;10427768;28;20029;-61
2024/03/30 00:31:46;;;;;;;7.15;1.90;;;;;;;;;;10411328;28;20048;-61
2024/03/30 00:36:47;;;;;;;3.42;1.85;;;;;;;;;;10435205;28;20036;-61
2024/03/30 00:41:47;;;;;;;6.18;2.10;;;;;;;;;;10414210;28;20087;-60
2024/03/30 00:46:48;;;;;;;5.40;2.22;;;;;;;;;;10425797;28;20038;-60
2024/03/30 00:51:48;;;;;;;8.60;2.88;;;;;;;;;;10417979;28;20033;-61
2024/03/30 00:56:49;;;;;;;4.90;2.38;;;;;;;;;;10415712;28;20168;-61
2024/03/30 01:01:50;;;;;;;5.18;2.17;;;;;;;;;;10428022;28;20025;-61
2024/03/30 01:06:50;;;;;;;6.15;2.00;;;;;;;;;;10428610;28;20029;-61
2024/03/30 01:11:54;;;;;;;9.73;2.58;;;;;;;;;;10414520;28;20029;-61
2024/03/30 01:16:55;;;;;;;7.03;2.90;;;;;;;;;;10417748;28;20476;-61
2024/03/30 01:21:56;;;;;;;5.45;1.98;;;;;;;;;;10424455;28;20033;-61
2024/03/30 01:26:57;;;;;;;4.82;2.50;;;;;;;;;;10435717;28;20030;-61
2024/03/30 01:31:58;;;;;;;9.02;2.85;;;;;;;;;;10415827;28;20449;-61
2024/03/30 01:36:59;;;;;;;6.75;2.10;;;;;;;;;;10424336;28;20096;-61
2024/03/30 01:42:00;;;;;;;6.13;2.55;;;;;;;;;;10426286;28;20021;-61
2024/03/30 01:47:01;;;;;;;5.30;2.20;;;;;;;;;;10433890;28;20380;-61
2024/03/30 01:52:03;;;;;;;7.90;2.25;;;;;;;;;;10431617;28;20061;-61
2024/03/30 01:57:04;;;;;;;9.93;2.50;;;;;;;;;;10421068;28;20049;-61
2024/03/30 02:02:06;;;;;;;8.82;2.17;;;;;;;;;;10434951;28;20077;-61
2024/03/30 02:07:09;;;;;;;2.78;2.00;;;;;;;;;;10435073;28;20021;-63
2024/03/30 02:12:10;;;;;;;7.45;2.00;;;;;;;;;;10424183;28;20026;-61
2024/03/30 02:17:10;;;;;;;4.30;2.00;;;;;;;;;;10427824;28;20028;-62
2024/03/30 02:22:15;;;;;;;7.28;2.47;;;;;;;;;;10433770;28;20520;-62
2024/03/30 02:27:16;;;;;;;2.40;1.88;;;;;;;;;;10419442;28;20100;-62
2024/03/30 02:32:17;;;;;;;6.00;2.00;;;;;;;;;;10425053;28;20380;-62
2024/03/30 02:37:18;;;;;;;6.90;2.40;;;;;;;;;;10433183;28;20039;-61
2024/03/30 02:42:19;;;;;;;8.00;2.67;;;;;;;;;;10428098;28;20080;-61
2024/03/30 02:47:19;;;;;;;6.15;2.33;;;;;;;;;;10435747;28;20145;-62
2024/03/30 02:52:20;;;;;;;6.20;1.70;;;;;;;;;;10420208;28;20029;-62
2024/03/30 02:57:20;;;;;;;4.63;2.03;;;;;;;;;;10422327;28;20017;-62
2024/03/30 03:02:22;;;;;;;9.30;2.40;;;;;;;;;;10413149;28;20029;-62
2024/03/30 03:07:22;;;;;;;5.82;2.33;;;;;;;;;;10408915;28;20292;-62
2024/03/30 03:12:23;;;;;;;3.20;1.65;;;;;;;;;;10415531;28;20624;-62
2024/03/30 03:17:23;;;;;;;8.35;1.95;;;;;;;;;;10433182;28;20025;-61
2024/03/30 03:22:24;;;;;;;7.53;2.13;;;;;;;;;;10420001;28;20033;-62
2024/03/30 03:27:24;;;;;;;6.40;2.28;;;;;;;;;;10425415;28;20033;-61
2024/03/30 03:32:25;;;;;;;4.68;2.10;;;;;;;;;;10432289;28;20053;-61
2024/03/30 03:37:25;;;;;;;9.60;2.17;;;;;;;;;;10440044;28;20029;-61
2024/03/30 03:42:27;;;;;;;5.03;2.20;;;;;;;;;;10419979;28;20041;-61
2024/03/30 03:47:28;;;;;;;8.85;2.15;;;;;;;;;;10417518;28;20264;-61
2024/03/30 03:52:28;;;;;;;7.15;1.83;;;;;;;;;;10430645;28;20276;-62
2024/03/30 03:57:29;;;;;;;4.45;2.03;;;;;;;;;;10442889;28;20029;-62
2024/03/30 04:02:30;;;;;;;3.10;1.85;;;;;;;;;;10432155;28;20032;-62
2024/03/30 04:07:31;;;;;;;3.95;1.90;;;;;;;;;;10436133;28;20546;-62
2024/03/30 04:12:31;;;;;;;4.88;1.70;;;;;;;;;;10407875;28;20300;-62
2024/03/30 04:17:33;;;;;;;5.68;2.35;;;;;;;;;;10430269;28;20025;-62
2024/03/30 04:22:34;;;;;;;5.88;1.88;;;;;;;;;;10417579;28;20056;-62
2024/03/30 04:27:34;;;;;;;4.68;1.70;;;;;;;;;;10428952;28;20056;-62
2024/03/30 04:32:35;;;;;;;4.10;2.22;;;;;;;;;;10420729;28;20551;-62
2024/03/30 04:37:35;;;;;;;10.88;1.95;;;;;;;;;;10436975;28;20030;-61
2024/03/30 04:42:36;;;;;;;7.13;2.10;;;;;;;;;;10426203;28;20392;-61
2024/03/30 04:47:37;;;;;;;2.45;1.85;;;;;;;;;;10437073;28;20067;-61
2024/03/30 04:52:37;;;;;;;7.82;2.10;;;;;;;;;;10414230;28;20413;-61
2024/03/30 04:57:38;;;;;;;5.50;1.83;;;;;;;;;;10415206;28;20025;-61
2024/03/30 05:02:38;;;;;;;6.90;1.92;;;;;;;;;;10421401;28;20416;-61
2024/03/30 05:07:39;;;;;;;3.38;1.55;;;;;;;;;;10414468;28;20346;-62
2024/03/30 05:12:40;;;;;;;5.07;1.60;;;;;;;;;;10415094;28;20472;-61
2024/03/30 05:17:40;;;;;;;8.57;2.63;;;;;;;;;;10412561;28;20535;-62
2024/03/30 05:22:41;;;;;;;4.93;1.90;;;;;;;;;;10423187;28;20469;-61
2024/03/30 05:27:41;;;;;;;4.53;1.85;;;;;;;;;;10435575;28;20083;-61
2024/03/30 05:32:42;;;;;;;4.60;2.30;;;;;;;;;;10424653;28;20444;-62
2024/03/30 05:37:44;;;;;;;4.32;2.08;;;;;;;;;;10433117;28;20473;-61
2024/03/30 05:42:44;;;;;;;6.07;2.08;;;;;;;;;;10413936;28;20397;-62
2024/03/30 05:47:45;;;;;;;6.25;2.00;;;;;;;;;;10424407;28;20021;-61
2024/03/30 05:52:45;;;;;;;2.45;1.77;;;;;;;;;;10430166;28;20036;-62
2024/03/30 05:57:47;;;;;;;4.90;1.95;;;;;;;;;;10446210;28;20014;-62
2024/03/30 06:02:48;;;;;;;7.85;2.05;;;;;;;;;;10439285;28;20501;-61
2024/03/30 06:07:49;;;;;;;5.80;2.10;;;;;;;;;;10411094;28;20087;-61
2024/03/30 06:12:49;;;;;;;7.05;2.30;;;;;;;;;;10423607;28;20546;-61
2024/03/30 06:17:50;;;;;;;6.35;2.10;;;;;;;;;;10434873;28;20381;-61
2024/03/30 06:22:50;;;;;;;8.07;2.30;;;;;;;;;;10440148;28;20539;-61
2024/03/30 06:27:51;;;;;;;3.13;1.80;;;;;;;;;;10439896;28;20028;-61
2024/03/30 06:32:51;;;;;;;6.25;1.98;;;;;;;;;;10427339;28;20045;-61
2024/03/30 06:37:52;;;;;;;4.72;1.98;;;;;;;;;;10419600;28;20021;-61
2024/03/30 06:48:12;;;;;;;6.65;2.00;;;;;;;;;;10409555;28;20485;-61
2024/03/30 06:53:12;;;;;;;4.38;2.05;;;;;;;;;;10421184;28;20022;-61
2024/03/30 06:58:14;;;;;;;3.70;1.75;;;;;;;;;;10407688;28;20022;-61
2024/03/30 07:03:15;;;;;;;7.03;2.20;;;;;;;;;;10437460;28;20028;-61
2024/03/30 07:08:17;;;;;;;8.20;2.70;;;;;;;;;;10430879;28;20054;-60
2024/03/30 07:13:17;;;;;;;10.18;2.45;;;;;;;;;;10438398;28;20510;-61
2024/03/30 07:18:18;;;;;;;7.82;2.60;;;;;;;;;;10419991;28;20017;-60
2024/03/30 07:23:20;;;;;;;6.65;1.98;;;;;;;;;;10516411;22;20055;-50
2024/03/30 07:28:21;;;;;;;5.25;2.03;;;;;;;;;;10518167;28;20027;-49
2024/03/30 07:33:21;;;;;;;8.95;2.10;;;;;;;;;;10519954;28;20057;-46
2024/03/30 07:38:32;;;;;;;6.15;2.08;;;;;;;;;;10496222;28;20040;-50
2024/03/30 07:43:33;;;;;;;11.40;3.03;;;;;;;;;;10524072;28;20040;-55
2024/03/30 07:48:33;;;;;;;9.60;2.40;;;;;;;;;;10490045;28;20025;-49
2024/03/30 07:53:34;;;;;;;18.00;3.00;;;;;;;;;;10459680;28;20040;-48
2024/03/30 07:58:34;;;;;;;19.00;2.90;;;;;;;;;;10482844;28;20427;-49
2024/03/30 08:03:35;;;;;;;16.83;3.55;;;;;;;;;;10492478;28;20518;-56
2024/03/30 08:08:36;;;;;;;13.82;2.40;;;;;;;;;;10488666;28;20376;-60
2024/03/30 08:13:36;;;;;;;16.38;3.88;;;;;;;;;;10494690;28;20043;-50
2024/03/30 08:18:37;;;;;;;14.80;3.65;;;;;;;;;;10492405;28;20040;-49
2024/03/30 08:23:37;;;;;;;18.02;3.25;;;;;;;;;;10493035;28;20052;-51
2024/03/30 08:28:38;;;;;;;19.58;3.78;;;;;;;;;;10492039;28;20037;-48
2024/03/30 08:33:38;;;;;;;21.65;3.75;;;;;;;;;;10489456;28;20037;-50
2024/03/30 08:38:39;;;;;;;24.55;3.67;;;;;;;;;;10516078;28;20035;-50
2024/03/30 08:43:40;;;;;;;14.05;3.15;;;;;;;;;;10531133;28;20191;-49
2024/03/30 08:48:41;;;;;;;14.95;3.47;;;;;;;;;;10492907;28;20028;-51
2024/03/30 08:53:44;;;;;;;13.32;3.00;;;;;;;;;;10502569;28;20025;-47
2024/03/30 08:58:45;;;;;;;15.55;3.28;;;;;;;;;;10495715;28;20439;-49
2024/03/30 09:03:45;;;;;;;13.05;2.92;;;;;;;;;;10496900;28;20079;-49
2024/03/30 09:08:46;;;;;;;13.27;3.28;;;;;;;;;;10495716;28;20035;-49
2024/03/30 09:13:46;;;;;;;13.15;3.45;;;;;;;;;;10490395;28;20163;-50
2024/03/30 09:18:47;;;;;;;11.57;3.08;;;;;;;;;;10492601;28;20024;-50
2024/03/30 09:23:48;;;;;;;11.13;2.97;;;;;;;;;;10510860;28;20051;-51
2024/03/30 09:28:48;;;;;;;19.55;3.85;;;;;;;;;;10505289;28;20024;-50
2024/03/30 09:33:49;;;;;;;20.95;3.38;;;;;;;;;;10493603;28;20425;-50
2024/03/30 09:38:49;;;;;;;13.18;2.55;;;;;;;;;;10500497;28;20042;-49
2024/03/30 09:43:51;;;;;;;20.80;3.20;;;;;;;;;;10491579;28;20033;-51
2024/03/30 09:48:53;;;;;;;15.40;3.70;;;;;;;;;;10490510;28;20048;-46
2024/03/30 09:53:55;;;;;;;11.32;2.90;;;;;;;;;;10488072;28;20021;-47
2024/03/30 09:58:59;;;;;;;12.77;3.40;;;;;;;;;;10488483;28;20028;-47
2024/03/30 10:04:00;;;;;;;13.32;3.60;;;;;;;;;;10488706;28;20395;-46
2024/03/30 10:09:05;;;;;;;18.30;3.30;;;;;;;;;;10492344;28;20028;-45
2024/03/30 10:14:21;;;;;;;14.63;4.00;;;;;;;;;;10485803;28;20025;-45
2024/03/30 10:19:23;;;;;;;14.82;3.85;;;;;;;;;;10492066;28;20523;-45
2024/03/30 10:24:27;;;;;;;21.00;3.90;;;;;;;;;;10491972;28;20044;-46
2024/03/30 10:29:29;;;;;;;14.20;4.57;;;;;;;;;;10508854;28;20028;-46
2024/03/30 10:34:30;;;;;;;14.88;4.45;;;;;;;;;;10512650;28;20035;-45
2024/03/30 10:39:31;;;;;;;15.40;4.05;;;;;;;;;;10496366;28;20395;-45
2024/03/30 10:44:32;;;;;;;20.25;4.32;;;;;;;;;;10520712;28;20035;-45
2024/03/30 10:49:32;;;;;;;15.93;3.78;;;;;;;;;;10489744;28;20056;-48
2024/03/30 10:54:33;;;;;;;17.48;3.92;;;;;;;;;;10509134;28;20027;-47
2024/03/30 10:59:40;;;;;;;11.77;3.55;;;;;;;;;;10503588;28;20226;-49
2024/03/30 11:04:42;;;;;;;11.70;3.42;;;;;;;;;;10497166;28;20040;-45
2024/03/30 11:09:44;;;;;;;10.48;3.03;;;;;;;;;;10496771;28;20397;-46
2024/03/30 11:14:44;;;;;;;13.95;3.22;;;;;;;;;;10494035;28;20468;-45
2024/03/30 11:20:16;;;;;;;12.45;2.75;;;;;;;;;;10489021;28;20020;-45
2024/03/30 11:25:21;;;;;;;10.98;3.38;;;;;;;;;;10495353;28;20271;-46
2024/03/30 11:30:44;;;;;;;11.07;2.50;;;;;;;;;;10494593;28;20496;-45
2024/03/30 11:35:58;;;;;;;11.73;3.53;;;;;;;;;;10473324;28;20686;-46
2024/03/30 11:41:03;;;;;;;10.73;3.78;;;;;;;;;;10522066;28;20110;-45
2024/03/30 11:46:05;;;;;;;12.60;3.38;;;;;;;;;;10479237;28;20434;-47
2024/03/30 11:51:20;;;;;;;15.18;3.38;;;;;;;;;;10482487;28;20024;-47
2024/03/30 11:56:20;;;;;;;9.15;2.83;;;;;;;;;;10473359;28;20376;-48
2024/03/30 12:01:21;;;;;;;13.00;3.55;;;;;;;;;;10474347;28;20029;-48
2024/03/30 12:06:22;;;;;;;11.95;2.75;;;;;;;;;;10485038;28;20144;-50
2024/03/30 12:11:22;;;;;;;13.25;3.28;;;;;;;;;;10470283;28;20016;-51
2024/03/30 12:16:23;;;;;;;12.38;3.03;;;;;;;;;;10477731;28;20166;-60
2024/03/30 12:21:24;;;;;;;10.52;2.85;;;;;;;;;;10465751;28;20511;-59
2024/03/30 12:26:25;;;;;;;14.43;3.08;;;;;;;;;;10490758;28;20020;-45
2024/03/30 12:31:28;;;;;;;15.68;3.95;;;;;;;;;;10487563;28;20039;-50
2024/03/30 12:36:28;;;;;;;12.48;3.83;;;;;;;;;;10481863;28;20044;-46
2024/03/30 12:41:29;;;;;;;17.33;3.95;;;;;;;;;;10504145;28;20397;-47
2024/03/30 12:46:30;;;;;;;15.45;3.58;;;;;;;;;;10493692;28;20025;-48
2024/03/30 12:51:36;;;;;;;17.02;3.45;;;;;;;;;;10471921;28;20056;-47
2024/03/30 12:56:37;;;;;;;11.65;3.40;;;;;;;;;;10488635;28;20051;-47
2024/03/30 13:01:38;;;;;;;15.25;4.13;;;;;;;;;;10491240;28;20345;-47
2024/03/30 13:06:43;;;;;;;10.13;3.35;;;;;;;;;;10487234;28;20029;-49
2024/03/30 13:11:45;;;;;;;10.07;3.08;;;;;;;;;;10518619;28;20488;-46
2024/03/30 13:16:45;;;;;;;15.35;3.95;;;;;;;;;;10495516;28;20032;-45
2024/03/30 13:21:47;;;;;;;11.93;3.45;;;;;;;;;;10494995;28;20412;-47
2024/03/30 13:26:48;;;;;;;15.90;4.00;;;;;;;;;;10490625;28;20044;-47
2024/03/30 13:31:49;;;;;;;10.55;3.55;;;;;;;;;;10504434;28;20468;-49
2024/03/30 13:36:49;;;;;;;11.10;3.75;;;;;;;;;;10510286;28;20557;-47
2024/03/30 13:41:50;;;;;;;13.00;3.88;;;;;;;;;;10489815;28;20033;-47
2024/03/30 13:46:50;;;;;;;8.20;2.90;;;;;;;;;;10487334;28;20029;-50
2024/03/30 13:51:51;;;;;;;7.32;3.20;;;;;;;;;;10489192;28;20020;-50
2024/03/30 13:56:56;;;;;;;9.00;3.63;;;;;;;;;;10490295;28;20495;-47
2024/03/30 14:01:56;;;;;;;14.68;4.57;;;;;;;;;;10490851;28;20463;-54
2024/03/30 14:06:57;;;;;;;12.82;4.30;;;;;;;;;;10499115;28;20024;-50
2024/03/30 14:12:00;;;;;;;14.43;3.80;;;;;;;;;;10490188;28;20032;-49
2024/03/30 14:17:04;;;;;;;14.40;4.25;;;;;;;;;;10490766;28;20564;-50
2024/03/30 14:22:04;;;;;;;19.23;4.78;;;;;;;;;;10489438;28;20553;-59
2024/03/30 14:27:05;;;;;;;14.20;4.38;;;;;;;;;;10502300;28;20265;-59
2024/03/30 14:32:06;;;;;;;16.63;5.70;;;;;;;;;;10492416;28;20020;-49
2024/03/30 14:37:11;;;;;;;22.15;4.75;;;;;;;;;;10504008;28;20025;-45
2024/03/30 14:42:12;;;;;;;16.77;4.30;;;;;;;;;;10487786;28;20453;-48
2024/03/30 14:47:13;;;;;;;19.52;4.60;;;;;;;;;;10487220;28;20081;-46
2024/03/30 14:52:13;;;;;;;21.98;6.05;;;;;;;;;;10486515;28;20028;-48
2024/03/30 14:57:16;;;;;;;17.27;4.68;;;;;;;;;;10486014;28;20031;-49
2024/03/30 15:02:16;;;;;;;27.45;5.57;;;;;;;;;;10503611;28;20032;-50
2024/03/30 15:07:19;;;;;;;15.73;4.70;;;;;;;;;;10494695;28;20460;-50
2024/03/30 15:12:20;;;;;;;16.30;4.82;;;;;;;;;;10488241;28;20020;-50
2024/03/30 15:17:20;;;;;;;23.38;4.70;;;;;;;;;;10486389;28;20025;-51
2024/03/30 15:22:22;;;;;;;17.88;5.32;;;;;;;;;;10486987;28;20040;-50
2024/03/30 15:27:23;;;;;;;19.02;3.83;;;;;;;;;;10489608;28;20028;-46
2024/03/30 15:32:30;;;;;;;25.73;4.85;;;;;;;;;;10512115;28;20062;-50
2024/03/30 15:37:31;;;;;;;19.48;4.40;;;;;;;;;;10503765;28;20170;-49
2024/03/30 15:42:31;;;;;;;18.83;4.72;;;;;;;;;;10496554;28;20078;-48
2024/03/30 15:47:32;;;;;;;19.35;4.43;;;;;;;;;;10506165;28;20024;-49
2024/03/30 15:52:33;;;;;;;20.73;4.15;;;;;;;;;;10497931;28;20071;-49
2024/03/30 15:57:33;;;;;;;11.63;4.07;;;;;;;;;;10489493;28;20082;-50
2024/03/30 16:02:34;;;;;;;12.75;3.70;;;;;;;;;;10506141;28;20445;-47
2024/03/30 16:07:35;;;;;;;20.15;4.32;;;;;;;;;;10488008;28;20597;-50
2024/03/30 16:12:36;;;;;;;15.20;4.40;;;;;;;;;;10482393;28;20074;-49
2024/03/30 16:17:36;;;;;;;14.00;4.30;;;;;;;;;;10482310;28;20395;-51
2024/03/30 16:22:37;;;;;;;17.48;4.53;;;;;;;;;;10484500;28;20102;-50
2024/03/30 16:27:37;;;;;;;27.95;5.00;;;;;;;;;;10487933;28;20025;-58
2024/03/30 16:32:38;;;;;;;19.90;4.28;;;;;;;;;;10493836;28;20024;-58
2024/03/30 16:37:43;;;;;;;11.90;3.92;;;;;;;;;;10516259;28;20024;-50
2024/03/30 16:42:43;;;;;;;23.10;4.93;;;;;;;;;;10489440;28;20028;-48
2024/03/30 16:47:55;;;;;;;18.98;3.97;;;;;;;;;;10491931;28;20027;-51
2024/03/30 16:52:55;;;;;;;19.13;4.13;;;;;;;;;;10490996;28;20059;-49
2024/03/30 16:57:56;;;;;;;17.25;3.85;;;;;;;;;;10491408;28;20051;-50
2024/03/30 17:02:56;;;;;;;14.63;3.85;;;;;;;;;;10492266;28;20036;-50
2024/03/30 17:07:57;;;;;;;13.20;4.38;;;;;;;;;;10492126;28;20059;-50
2024/03/30 17:12:58;;;;;;;23.63;4.47;;;;;;;;;;10466844;28;20025;-49
2024/03/30 17:17:58;;;;;;;17.40;3.63;;;;;;;;;;10504584;28;20056;-49
2024/03/30 17:22:59;;;;;;;17.10;4.45;;;;;;;;;;10490567;28;20048;-49
2024/03/30 17:28:00;;;;;;;22.67;4.20;;;;;;;;;;10480555;28;20095;-50
2024/03/30 17:33:00;;;;;;;15.70;3.83;;;;;;;;;;10490314;28;20028;-48
2024/03/30 17:38:01;;;;;;;18.17;4.15;;;;;;;;;;10494822;28;20396;-55
2024/03/30 17:43:02;;;;;;;24.05;4.47;;;;;;;;;;10480778;28;20462;-47
2024/03/30 17:48:03;;;;;;;19.30;4.75;;;;;;;;;;10486313;28;20028;-57
2024/03/30 17:53:03;;;;;;;12.77;3.33;;;;;;;;;;10483736;28;20116;-55
2024/03/30 17:58:04;;;;;;;16.80;4.18;;;;;;;;;;10492256;28;20020;-55
2024/03/30 18:03:04;;;;;;;22.00;4.32;;;;;;;;;;10488689;28;20040;-54
2024/03/30 18:08:05;;;;;;;10.43;3.88;;;;;;;;;;10487793;28;20028;-53
2024/03/30 18:13:09;;;;;;;21.13;4.25;;;;;;;;;;10494991;28;20029;-51
2024/03/30 18:18:10;;;;;;;20.20;5.32;;;;;;;;;;10489460;28;20032;-53
2024/03/30 18:23:12;;;;;;;17.17;3.83;;;;;;;;;;10472380;28;20086;-56
2024/03/30 18:28:13;;;;;;;15.13;3.92;;;;;;;;;;10491098;28;20028;-52
2024/03/30 18:33:15;;;;;;;14.55;4.03;;;;;;;;;;10482027;28;20511;-58
2024/03/30 18:38:16;;;;;;;32.70;5.38;;;;;;;;;;10508805;28;20612;-53
2024/03/30 18:43:18;;;;;;;24.58;4.18;;;;;;;;;;10495793;28;20283;-57
2024/03/30 18:48:18;;;;;;;21.02;4.05;;;;;;;;;;10487404;28;20024;-55
2024/03/30 18:53:19;;;;;;;22.63;4.40;;;;;;;;;;10473401;28;20033;-55
2024/03/30 18:58:19;;;;;;;29.65;4.78;;;;;;;;;;10483920;28;20020;-54
2024/03/30 19:03:20;;;;;;;16.50;4.35;;;;;;;;;;10476325;28;20051;-53
2024/03/30 19:08:21;;;;;;;22.77;4.57;;;;;;;;;;10473401;28;20025;-55
2024/03/30 19:13:21;;;;;;;19.50;4.65;;;;;;;;;;10476577;28;20028;-55
2024/03/30 19:18:23;;;;;;;17.00;3.85;;;;;;;;;;10487405;28;20021;-57
2024/03/30 19:23:23;;;;;;;23.48;4.13;;;;;;;;;;10481450;28;20049;-58
2024/03/30 19:28:24;;;;;;;16.50;4.05;;;;;;;;;;10477107;28;20070;-56
2024/03/30 19:33:24;;;;;;;23.67;6.00;;;;;;;;;;10488760;28;20392;-49
2024/03/30 19:38:30;;;;;;;36.03;5.85;;;;;;;;;;10499108;28;20391;-54
2024/03/30 19:43:30;;;;;;;37.78;7.32;;;;;;;;;;10470766;28;20032;-56
2024/03/30 19:48:31;;;;;;;33.45;5.63;;;;;;;;;;10480865;28;20036;-55
2024/03/30 19:53:35;;;;;;;22.52;4.70;;;;;;;;;;10461167;28;20033;-54
2024/03/30 19:58:36;;;;;;;33.97;5.90;;;;;;;;;;10486161;28;20032;-50
2024/03/30 20:03:37;;;;;;;21.40;5.43;;;;;;;;;;10487514;28;20040;-53
2024/03/30 20:08:37;;;;;;;16.08;4.95;;;;;;;;;;10497167;28;20028;-52
2024/03/30 20:13:39;;;;;;;26.40;5.85;;;;;;;;;;10500258;28;20055;-47
2024/03/30 20:18:39;;;;;;;32.13;6.13;;;;;;;;;;10486983;28;20032;-47
2024/03/30 20:23:40;;;;;;;37.38;5.38;;;;;;;;;;10481590;28;20045;-49
2024/03/30 20:28:41;;;;;;;19.20;4.53;;;;;;;;;;10502626;28;20025;-49
2024/03/30 20:33:41;;;;;;;29.55;5.55;;;;;;;;;;10507053;28;20032;-55
2024/03/30 20:38:42;;;;;;;23.08;4.85;;;;;;;;;;10493233;28;20082;-51
2024/03/30 20:43:44;;;;;;;18.88;5.18;;;;;;;;;;10492468;28;20137;-46
2024/03/30 20:48:45;;;;;;;19.70;4.97;;;;;;;;;;10492139;28;20025;-49
2024/03/30 20:53:46;;;;;;;23.83;4.68;;;;;;;;;;10482978;28;20467;-51
2024/03/30 20:58:46;;;;;;;19.33;4.97;;;;;;;;;;10469417;28;20025;-49
2024/03/30 21:03:47;;;;;;;42.70;6.10;;;;;;;;;;10470351;28;20098;-49
2024/03/30 21:08:48;;;;;;;22.63;4.90;;;;;;;;;;10480804;28;20027;-50
2024/03/30 21:13:48;;;;;;;27.42;5.65;;;;;;;;;;10485227;28;20024;-48
2024/03/30 21:18:49;;;;;;;32.33;5.75;;;;;;;;;;10492850;28;20032;-52
2024/03/30 21:23:50;;;;;;;20.77;4.63;;;;;;;;;;10491523;28;20052;-46
2024/03/30 21:28:59;;;;;;;23.33;4.95;;;;;;;;;;10489442;28;20156;-53
2024/03/30 21:34:01;;;;;;;;;;;;;;;;;;10491902;28;20037;-48
2024/03/30 21:39:01;;;;;;;18.13;4.68;;;;;;;;;;10494054;28;20047;-47
2024/03/30 21:44:02;;;;;;;27.95;5.03;;;;;;;;;;10495626;28;20194;-46
2024/03/30 21:49:03;;;;;;;25.23;4.43;;;;;;;;;;10491681;28;20075;-46
2024/03/30 21:54:03;;;;;;;18.60;4.00;;;;;;;;;;10493795;28;20522;-48
2024/03/30 21:59:04;;;;;;;19.17;4.43;;;;;;;;;;10496112;28;20032;-47
2024/03/30 22:04:04;;;;;;;18.17;3.88;;;;;;;;;;10496009;28;20024;-51
2024/03/30 22:09:05;;;;;;;20.10;4.53;;;;;;;;;;10499685;28;20036;-51
2024/03/30 22:14:06;;;;;;;23.05;4.40;;;;;;;;;;10497055;28;20036;-58
2024/03/30 22:19:07;;;;;;;17.55;4.15;;;;;;;;;;10491168;28;20036;-49
2024/03/30 22:24:11;;;;;;;23.08;4.90;;;;;;;;;;10490348;28;20098;-54
2024/03/30 22:29:12;;;;;;;24.00;4.78;;;;;;;;;;10495405;28;20024;-50
2024/03/30 22:34:13;;;;;;;15.65;3.95;;;;;;;;;;10501275;28;20468;-49
2024/03/30 22:39:14;;;;;;;18.70;4.55;;;;;;;;;;10524007;28;20110;-50
2024/03/30 22:44:14;;;;;;;21.73;4.43;;;;;;;;;;10483031;28;20032;-55
2024/03/30 22:49:15;;;;;;;21.55;4.88;;;;;;;;;;10478601;28;20077;-51
2024/03/30 22:54:15;;;;;;;18.75;4.40;;;;;;;;;;10498183;28;20027;-50
2024/03/30 22:59:16;;;;;;;17.95;4.45;;;;;;;;;;10474601;28;20180;-56
2024/03/30 23:04:17;;;;;;;16.90;4.28;;;;;;;;;;10489813;28;20036;-54
2024/03/30 23:09:18;;;;;;;23.98;4.15;;;;;;;;;;10490376;28;20154;-59
2024/03/30 23:14:18;;;;;;;18.10;3.70;;;;;;;;;;10488638;28;20059;-50
2024/03/30 23:19:22;;;;;;;12.18;3.70;;;;;;;;;;10498184;28;20024;-46
2024/03/30 23:24:23;;;;;;;17.23;4.40;;;;;;;;;;10512955;28;20048;-47
2024/03/30 23:29:26;;;;;;;18.30;3.97;;;;;;;;;;10498176;28;20032;-50
2024/03/30 23:34:26;;;;;;;21.75;3.53;;;;;;;;;;10512593;28;20093;-46
2024/03/30 23:39:27;;;;;;;19.80;4.65;;;;;;;;;;10477588;28;20043;-49
2024/03/30 23:44:28;;;;;;;24.10;4.05;;;;;;;;;;10461191;28;20253;-49
2024/03/30 23:49:32;;;;;;;15.88;3.92;;;;;;;;;;10467757;28;20036;-47
2024/03/30 23:54:33;;;;;;;25.52;4.38;;;;;;;;;;10487094;28;20472;-46
2024/03/30 23:59:33;;;;;;;12.43;3.88;;;;;;;;;;10493104;28;20029;-50
